Time;durP1;ratioP1;P1;durP2;ratioP2;P2;SDS_P1;SDS_P2;PMS_P1;PMS_P2;Temp;Humidity;BMP_temperature;BMP_pressure;BME280_temperature;BME280_humidity;BME280_pressure;Samples;Min_cycle;Max_cycle;Signal;HPM_P1;HPM_P2
2022/10/07 00:00:19;;;;;;;;;10.00;10.00;;;;;15.26;60.83;-19617.84;4983363;27;45305;-84
2022/10/07 00:02:44;;;;;;;;;8.67;8.33;;;;;15.31;60.93;-19619.31;4990425;28;45629;-83
2022/10/07 00:05:10;;;;;;;;;10.00;10.00;;;;;15.33;61.11;-19619.88;4984675;27;45452;-84
2022/10/07 00:07:35;;;;;;;;;12.67;12.33;;;;;15.22;60.95;-19616.91;4990963;27;46018;-83
2022/10/07 00:10:00;;;;;;;;;12.00;12.00;;;;;15.34;61.19;-19620.00;4988942;28;45485;-84
2022/10/07 00:12:27;;;;;;;;;15.00;11.33;;;;;15.32;61.23;-19619.59;4966407;28;45580;-83
2022/10/07 00:14:52;;;;;;;;;12.33;12.33;;;;;15.34;61.21;-19620.00;4970732;28;45477;-83
2022/10/07 00:17:18;;;;;;;;;12.67;8.67;;;;;15.32;61.18;-19619.47;4991930;27;46116;-84
2022/10/07 00:19:43;;;;;;;;;10.00;9.33;;;;;15.28;61.35;-19618.38;4988927;27;45552;-84
2022/10/07 00:22:08;;;;;;;;;11.00;11.00;;;;;15.18;61.44;-19615.84;4991827;28;45478;-84
2022/10/07 00:24:34;;;;;;;;;12.00;11.33;;;;;15.15;61.48;-19615.03;5003506;27;45487;-84
2022/10/07 00:26:59;;;;;;;;;15.33;11.67;;;;;15.18;61.54;-19615.84;5008958;27;45385;-84
2022/10/07 00:29:24;;;;;;;;;10.67;8.67;;;;;15.15;61.44;-19615.03;4987641;27;45580;-84
2022/10/07 00:31:50;;;;;;;;;12.00;10.33;;;;;15.13;61.81;-19614.50;4993639;28;45586;-84
2022/10/07 00:34:16;;;;;;;;;14.00;12.00;;;;;15.11;61.70;-19613.97;4987372;27;45550;-84
2022/10/07 00:36:42;;;;;;;;;16.33;12.00;;;;;15.02;61.65;-19611.53;4987254;27;45752;-84
2022/10/07 00:39:11;;;;;;;;;10.33;10.33;;;;;15.05;61.91;-19612.47;5012975;27;45562;-84
2022/10/07 00:41:43;;;;;;;;;14.33;11.67;;;;;14.97;62.62;-19610.34;4997370;27;45485;-84
2022/10/07 00:44:44;;;;;;;;;12.67;10.67;;;;;14.93;62.33;-19609.25;4975068;28;45515;-83
2022/10/07 00:47:23;;;;;;;;;14.67;10.67;;;;;14.89;62.49;-19608.31;4977265;28;46195;-83
2022/10/07 00:49:55;;;;;;;;;12.00;10.67;;;;;14.91;62.41;-19608.88;4988904;28;45478;-84
2022/10/07 00:52:25;;;;;;;;;12.33;10.00;;;;;14.95;62.52;-19609.81;4977230;28;45417;-84
2022/10/07 00:54:53;;;;;;;;;11.33;9.33;;;;;14.82;62.29;-19606.44;4990766;28;45463;-83
2022/10/07 00:57:26;;;;;;;;;9.00;4.00;;;;;14.92;62.27;-19609.00;4987872;28;45399;-83
2022/10/07 00:59:54;;;;;;;;;10.67;8.67;;;;;14.92;62.70;-19609.00;4990251;28;48796;-82
2022/10/07 01:02:22;;;;;;;;;13.67;11.67;;;;;14.89;62.72;-19608.19;4977192;28;45526;-83
2022/10/07 01:04:49;;;;;;;;;9.33;9.33;;;;;14.85;62.86;-19607.25;4990161;28;45515;-83
2022/10/07 01:07:17;;;;;;;;;11.00;11.00;;;;;14.82;62.53;-19606.44;4982603;28;45446;-83
2022/10/07 01:09:42;;;;;;;;;10.33;9.33;;;;;14.77;62.86;-19605.25;4993187;28;45412;-83
2022/10/07 01:12:36;;;;;;;;;11.00;11.00;;;;;14.66;62.73;-19602.28;5003562;28;45375;-83
2022/10/07 01:15:12;;;;;;;;;9.00;9.00;;;;;14.73;62.57;-19604.03;4982588;28;45564;-83
2022/10/07 01:17:51;;;;;;;;;11.67;10.00;;;;;14.71;62.67;-19603.50;4975424;28;47208;-83
2022/10/07 01:20:39;;;;;;;;;11.00;10.00;;;;;14.65;62.75;-19601.88;4988520;28;45572;-83
2022/10/07 01:23:45;;;;;;;;;10.00;9.00;;;;;14.62;63.04;-19601.06;4965428;28;45481;-83
2022/10/07 01:26:13;;;;;;;;;8.67;8.67;;;;;14.72;62.86;-19603.75;4972020;28;45443;-82
2022/10/07 01:28:50;;;;;;;;;12.33;11.67;;;;;14.70;62.71;-19603.34;4961681;28;45526;-82
2022/10/07 01:31:21;;;;;;;;;11.33;10.00;;;;;14.61;62.71;-19600.94;4964809;28;45431;-82
2022/10/07 01:33:51;;;;;;;;;9.00;9.00;;;;;14.74;62.61;-19604.28;4969506;28;45648;-82
2022/10/07 01:36:21;;;;;;;;;6.67;5.33;;;;;14.67;62.45;-19602.56;4971401;28;45629;-83
2022/10/07 01:38:53;;;;;;;;;9.33;9.33;;;;;14.68;62.76;-19602.69;4963013;28;48304;-82
2022/10/07 01:41:23;;;;;;;;;8.33;7.00;;;;;14.67;62.62;-19602.41;4957870;28;45501;-82
2022/10/07 01:43:52;;;;;;;;;12.00;9.00;;;;;14.64;62.36;-19601.63;4965258;28;45346;-83
2022/10/07 01:46:23;;;;;;;;;12.00;9.67;;;;;14.65;62.44;-19601.88;4988823;27;45535;-82
2022/10/07 01:48:50;;;;;;;;;11.33;9.33;;;;;14.54;62.79;-19599.19;4964647;28;46158;-83
2022/10/07 01:51:18;;;;;;;;;8.33;8.33;;;;;14.62;62.66;-19601.06;4979915;27;45499;-83
2022/10/07 01:54:13;;;;;;;;;11.67;11.33;;;;;14.46;63.01;-19597.03;4995519;27;45405;-83
2022/10/07 01:56:57;;;;;;;;;10.67;10.00;;;;;14.47;63.04;-19597.31;4993873;27;45366;-82
2022/10/07 01:59:41;;;;;;;;;13.67;9.67;;;;;14.42;63.18;-19595.97;4991832;27;45753;-83
2022/10/07 02:02:23;;;;;;;;;10.00;10.00;;;;;14.48;63.04;-19597.56;4984919;27;45594;-82
2022/10/07 02:05:01;;;;;;;;;12.67;10.00;;;;;14.45;62.99;-19596.63;4985885;27;45388;-82
2022/10/07 02:07:29;;;;;;;;;11.00;9.33;;;;;14.40;62.97;-19595.28;4998883;27;45456;-82
2022/10/07 02:10:11;;;;;;;;;13.00;11.67;;;;;14.34;63.31;-19593.94;4985654;27;45615;-82
2022/10/07 02:12:45;;;;;;;;;15.67;9.67;;;;;14.33;62.86;-19593.69;4991564;27;45378;-83
2022/10/07 02:15:16;;;;;;;;;12.00;9.00;;;;;14.43;63.05;-19596.22;4975502;28;45393;-82
2022/10/07 02:17:50;;;;;;;;;10.67;10.00;;;;;14.36;62.64;-19594.34;4998186;28;45368;-82
2022/10/07 02:20:18;;;;;;;;;11.00;11.00;;;;;14.41;63.02;-19595.56;4993017;27;45372;-82
2022/10/07 02:22:46;;;;;;;;;9.00;9.00;;;;;14.35;62.45;-19594.09;4991629;27;45403;-82
2022/10/07 02:25:14;;;;;;;;;12.00;11.00;;;;;14.27;63.16;-19591.94;5013581;27;45439;-82
2022/10/07 02:27:43;;;;;;;;;10.00;10.00;;;;;14.37;62.85;-19594.63;4984415;27;45450;-82
2022/10/07 02:30:12;;;;;;;;;9.67;8.00;;;;;14.35;62.80;-19594.22;4985322;28;48597;-82
2022/10/07 02:32:43;;;;;;;;;11.00;9.00;;;;;14.27;62.67;-19591.94;4989125;27;45440;-82
2022/10/07 02:35:24;;;;;;;;;9.67;8.00;;;;;14.23;63.04;-19591.00;4990039;27;45754;-83
2022/10/07 02:37:53;;;;;;;;;11.33;10.00;;;;;14.21;62.93;-19590.47;4974241;28;45556;-82
2022/10/07 02:40:20;;;;;;;;;10.00;10.00;;;;;14.31;62.97;-19593.16;4979347;27;46021;-82
2022/10/07 02:43:05;;;;;;;;;10.00;10.00;;;;;14.28;63.09;-19592.19;4982444;27;45589;-82
2022/10/07 02:46:23;;;;;;;;;9.00;7.33;;;;;14.27;62.79;-19592.06;4989409;28;45439;-82
2022/10/07 02:49:04;;;;;;;;;9.00;8.00;;;;;14.29;63.11;-19592.47;4980438;27;45383;-83
2022/10/07 02:51:41;;;;;;;;;9.67;9.67;;;;;14.29;63.11;-19592.47;4992261;27;46188;-82
2022/10/07 02:54:07;;;;;;;;;14.00;8.00;;;;;14.21;63.06;-19590.31;4988934;27;45370;-83
2022/10/07 02:56:36;;;;;;;;;7.33;7.00;;;;;14.22;62.98;-19590.59;4984293;27;45756;-84
2022/10/07 02:59:06;;;;;;;;;10.00;8.33;;;;;14.18;63.15;-19589.66;4995270;27;45444;-83
2022/10/07 03:01:39;;;;;;;;;11.33;9.67;;;;;14.12;63.30;-19588.03;4976326;28;46968;-83
2022/10/07 03:04:05;;;;;;;;;12.33;9.00;;;;;14.05;63.11;-19586.16;4991093;27;45517;-83
2022/10/07 03:06:34;;;;;;;;;8.67;7.67;;;;;14.00;63.26;-19584.94;4989602;27;45592;-83
2022/10/07 03:09:00;;;;;;;;;7.67;7.67;;;;;13.99;63.07;-19584.56;4990817;27;45373;-83
2022/10/07 03:11:25;;;;;;;;;9.67;8.00;;;;;14.05;63.04;-19586.28;4976530;27;45452;-83
2022/10/07 03:13:50;;;;;;;;;10.00;9.00;;;;;14.03;63.44;-19585.63;4985150;28;46209;-83
2022/10/07 03:16:16;;;;;;;;;8.33;7.00;;;;;13.94;63.38;-19583.34;4996417;27;45322;-83
2022/10/07 03:18:41;;;;;;;;;9.67;9.67;;;;;13.95;63.30;-19583.59;4984426;28;45563;-82
2022/10/07 03:21:07;;;;;;;;;8.00;7.00;;;;;13.96;63.37;-19583.75;4984933;27;45455;-84
2022/10/07 03:23:33;;;;;;;;;7.33;6.00;;;;;14.03;63.37;-19585.63;5003289;27;47074;-82
2022/10/07 03:25:59;;;;;;;;;5.00;3.00;;;;;13.98;63.27;-19584.41;4991121;27;45519;-83
2022/10/07 03:28:27;;;;;;;;;7.33;7.00;;;;;13.93;63.04;-19583.22;4994537;27;45394;-83
2022/10/07 03:30:53;;;;;;;;;8.67;8.33;;;;;13.89;63.41;-19582.00;4990401;27;46756;-83
2022/10/07 03:33:23;;;;;;;;;8.67;7.00;;;;;13.93;63.44;-19583.06;4986538;27;45496;-83
2022/10/07 03:35:49;;;;;;;;;10.67;7.67;;;;;13.78;63.48;-19579.03;4988236;27;45501;-83
2022/10/07 03:38:14;;;;;;;;;8.33;8.33;;;;;13.87;63.50;-19581.47;4988610;27;47068;-82
2022/10/07 03:40:43;;;;;;;;;9.00;6.67;;;;;13.85;63.78;-19580.91;4978480;28;46675;-82
2022/10/07 03:43:08;;;;;;;;;9.00;6.67;;;;;13.81;63.74;-19579.97;4992319;28;45456;-83
2022/10/07 03:45:36;;;;;;;;;7.67;7.67;;;;;13.81;63.73;-19579.84;4981640;28;45495;-82
2022/10/07 03:48:02;;;;;;;;;7.67;7.00;;;;;13.79;63.65;-19579.31;4990787;27;45324;-82
2022/10/07 03:50:28;;;;;;;;;7.33;7.33;;;;;13.75;63.99;-19578.22;4996263;27;46474;-83
2022/10/07 03:52:54;;;;;;;;;8.67;7.00;;;;;13.68;64.22;-19576.50;4981307;27;45848;-83
2022/10/07 03:55:20;;;;;;;;;4.33;4.33;;;;;13.76;64.10;-19578.63;4992908;28;45762;-82
2022/10/07 03:57:52;;;;;;;;;8.00;6.00;;;;;13.70;63.57;-19577.16;4983041;28;45456;-82
2022/10/07 04:00:19;;;;;;;;;7.33;7.00;;;;;13.69;63.83;-19576.88;4972623;28;46318;-82
2022/10/07 04:02:46;;;;;;;;;8.33;7.33;;;;;13.67;63.90;-19576.22;4985193;27;45408;-82
2022/10/07 04:05:14;;;;;;;;;7.67;7.33;;;;;13.63;64.04;-19575.28;4980029;27;45384;-82
2022/10/07 04:07:42;;;;;;;;;8.33;6.33;;;;;13.67;64.14;-19576.22;4988347;27;45243;-82
2022/10/07 04:10:08;;;;;;;;;12.00;8.67;;;;;13.67;63.99;-19576.34;4990636;27;47417;-82
2022/10/07 04:12:34;;;;;;;;;7.67;6.33;;;;;13.66;63.82;-19576.09;4980112;28;45886;-82
2022/10/07 04:15:00;;;;;;;;;9.00;8.00;;;;;13.65;63.82;-19575.81;4990425;27;45378;-82
2022/10/07 04:17:27;;;;;;;;;9.67;9.00;;;;;13.66;63.90;-19575.94;5019490;27;45507;-82
2022/10/07 04:19:52;;;;;;;;;7.00;7.00;;;;;13.66;63.71;-19576.09;4998660;27;46205;-83
2022/10/07 04:22:17;;;;;;;;;8.33;7.00;;;;;13.52;63.56;-19572.31;4994722;27;45534;-82
2022/10/07 04:25:32;;;;;;;;;8.00;7.00;;;;;13.57;63.91;-19573.66;4993819;27;45671;-82
2022/10/07 04:27:28;;;;;;;;;7.00;7.00;;;;;13.56;63.77;-19573.41;4993172;28;45577;-83
2022/10/07 04:29:54;;;;;;;;;7.00;7.00;;;;;13.56;63.77;-19573.25;4973837;28;46033;-83
2022/10/07 04:32:21;;;;;;;;;7.33;7.33;;;;;13.52;63.70;-19572.31;4985735;27;45594;-83
2022/10/07 04:34:47;;;;;;;;;10.00;7.00;;;;;13.51;63.78;-19572.06;4978084;28;45377;-82
2022/10/07 04:37:12;;;;;;;;;8.33;5.67;;;;;13.56;63.64;-19573.25;4978639;28;45662;-83
2022/10/07 04:39:37;;;;;;;;;6.00;6.00;;;;;13.58;64.11;-19573.78;4989231;27;47187;-83
2022/10/07 04:42:03;;;;;;;;;9.67;7.33;;;;;13.57;63.70;-19573.53;4995496;27;45387;-82
2022/10/07 04:44:28;;;;;;;;;9.00;8.00;;;;;13.57;63.69;-19573.53;4993285;27;45307;-82
2022/10/07 04:46:55;;;;;;;;;7.00;6.00;;;;;13.50;63.65;-19571.78;4976361;28;45359;-81
2022/10/07 04:49:21;;;;;;;;;6.00;6.00;;;;;13.57;63.82;-19573.53;4970886;28;47396;-82
2022/10/07 04:51:46;;;;;;;;;9.00;7.00;;;;;13.58;63.71;-19573.78;4985575;28;45434;-82
2022/10/07 04:54:12;;;;;;;;;6.67;6.67;;;;;13.55;63.63;-19573.00;4977033;28;45466;-83
2022/10/07 04:56:38;;;;;;;;;7.00;7.00;;;;;13.52;63.73;-19572.44;4980576;27;45762;-89
2022/10/07 04:59:04;;;;;;;;;9.00;7.00;;;;;13.42;63.68;-19569.63;5017800;27;46191;-85
2022/10/07 05:01:30;;;;;;;;;6.67;6.67;;;;;13.48;63.55;-19571.38;4992363;27;45385;-85
2022/10/07 05:03:56;;;;;;;;;7.00;7.00;;;;;13.48;63.91;-19571.38;4992005;27;45688;-84
2022/10/07 05:06:22;;;;;;;;;6.00;6.00;;;;;13.48;63.79;-19571.25;4981830;27;45373;-85
2022/10/07 05:08:48;;;;;;;;;9.33;8.33;;;;;13.44;64.16;-19570.31;4986721;27;46208;-84
2022/10/07 05:11:14;;;;;;;;;6.67;6.67;;;;;13.38;63.76;-19568.56;4993966;27;45613;-85
2022/10/07 05:13:39;;;;;;;;;8.00;8.00;;;;;13.43;63.80;-19570.03;4988592;28;45666;-86
2022/10/07 05:16:08;;;;;;;;;7.67;7.67;;;;;13.39;63.95;-19568.81;4983061;27;45492;-85
2022/10/07 05:18:34;;;;;;;;;9.00;7.67;;;;;13.37;63.70;-19568.41;4978753;28;45550;-85
2022/10/07 05:21:04;;;;;;;;;9.67;8.00;;;;;13.39;63.85;-19568.97;4983410;27;45339;-85
2022/10/07 05:23:30;;;;;;;;;15.33;12.33;;;;;13.38;63.92;-19568.69;4985780;27;45469;-80
2022/10/07 05:26:00;;;;;;;;;10.67;8.00;;;;;13.29;63.89;-19566.41;4980061;28;45800;-79
2022/10/07 05:28:26;;;;;;;;;8.00;6.67;;;;;13.28;63.72;-19566.00;4984211;27;46173;-79
2022/10/07 05:31:00;;;;;;;;;9.67;9.33;;;;;13.27;63.79;-19565.72;4973569;28;45493;-80
2022/10/07 05:33:26;;;;;;;;;8.33;7.67;;;;;13.32;64.10;-19567.06;4982997;28;45362;-79
2022/10/07 05:35:51;;;;;;;;;4.33;3.33;;;;;13.35;64.00;-19567.88;4989006;27;45534;-79
2022/10/07 05:38:16;;;;;;;;;11.00;9.33;;;;;13.37;63.97;-19568.41;4986394;28;47196;-79
2022/10/07 05:40:44;;;;;;;;;8.33;8.00;;;;;13.34;63.82;-19567.47;4996680;27;46619;-79
2022/10/07 05:43:10;;;;;;;;;7.00;6.67;;;;;13.24;64.16;-19565.06;4966806;27;46966;-78
2022/10/07 05:45:35;;;;;;;;;8.67;7.00;;;;;13.27;64.02;-19565.88;4994789;28;45300;-79
2022/10/07 05:48:00;;;;;;;;;9.33;6.00;;;;;13.21;64.38;-19564.13;5000180;27;45453;-79
2022/10/07 05:50:26;;;;;;;;;11.67;7.00;;;;;13.10;64.39;-19561.28;4991976;27;45450;-79
2022/10/07 05:52:51;;;;;;;;;6.00;6.00;;;;;13.17;64.44;-19563.03;4999787;27;45856;-79
2022/10/07 05:55:17;;;;;;;;;11.33;7.33;;;;;13.02;64.60;-19559.13;4999890;27;45387;-77
2022/10/07 05:57:42;;;;;;;;;13.67;12.00;;;;;13.16;64.79;-19562.91;4991925;27;45472;-78
2022/10/07 06:00:10;;;;;;;;;11.00;10.00;;;;;13.16;64.94;-19562.75;4968597;28;45689;-75
2022/10/07 06:02:36;;;;;;;;;12.00;11.00;;;;;13.05;64.65;-19560.06;4980559;27;45583;-73
2022/10/07 06:05:01;;;;;;;;;11.67;9.67;;;;;13.17;64.92;-19563.16;4978559;28;45399;-77
2022/10/07 06:07:28;;;;;;;;;13.33;9.00;;;;;13.06;64.78;-19560.22;4987645;27;45520;-76
2022/10/07 06:15:21;;;;;;;;;12.00;10.00;;;;;13.26;64.43;-19565.59;5006931;27;45440;-77
2022/10/07 06:17:46;;;;;;;;;11.67;10.00;;;;;13.33;64.57;-19567.34;5014106;27;46179;-76
2022/10/07 06:20:13;;;;;;;;;9.33;9.33;;;;;13.34;64.67;-19567.59;4996193;27;45436;-76
2022/10/07 06:22:39;;;;;;;;;12.33;9.00;;;;;13.17;64.53;-19563.03;4997771;27;47178;-77
2022/10/07 06:25:05;;;;;;;;;10.00;10.00;;;;;13.18;64.87;-19563.31;4994213;27;45838;-79
2022/10/07 06:27:31;;;;;;;;;11.00;8.67;;;;;13.20;64.73;-19563.84;5035982;27;46682;-75
2022/10/07 06:29:56;;;;;;;;;10.00;9.00;;;;;13.22;64.95;-19564.38;4992382;27;45563;-75
2022/10/07 06:32:21;;;;;;;;;11.33;11.33;;;;;13.20;64.98;-19563.97;5023541;27;45466;-75
2022/10/07 06:34:47;;;;;;;;;8.33;8.33;;;;;13.09;65.07;-19561.16;4990155;27;45472;-75
2022/10/07 06:37:12;;;;;;;;;15.00;11.00;;;;;13.32;64.89;-19566.94;4994327;28;54528;-75
2022/10/07 06:39:38;;;;;;;;;12.00;10.67;;;;;13.27;65.06;-19565.88;4990307;27;45468;-75
2022/10/07 06:42:03;;;;;;;;;10.00;9.00;;;;;13.25;65.30;-19565.19;4986309;27;45370;-75
2022/10/07 06:44:29;;;;;;;;;12.00;10.67;;;;;13.27;65.38;-19565.72;5002903;27;45605;-76
2022/10/07 06:46:55;;;;;;;;;16.00;13.00;;;;;13.32;65.45;-19567.06;5017692;27;45860;-76
2022/10/07 06:49:20;;;;;;;;;11.67;11.67;;;;;13.34;65.65;-19567.59;4982894;27;45499;-75
2022/10/07 06:51:46;;;;;;;;;14.00;12.67;;;;;13.38;65.76;-19568.56;4994955;27;45628;-76
2022/10/07 06:54:11;;;;;;;;;13.67;12.00;;;;;13.32;66.15;-19567.06;4986298;27;47011;-76
2022/10/07 06:56:37;;;;;;;;;11.00;11.00;;;;;13.42;65.90;-19569.75;4995059;27;46227;-75
2022/10/07 06:59:03;;;;;;;;;15.33;12.33;;;;;13.41;66.00;-19569.50;4982680;27;45523;-75
2022/10/07 07:01:29;;;;;;;;;11.00;10.67;;;;;13.63;65.96;-19575.28;4985087;27;45545;-76
2022/10/07 07:03:54;;;;;;;;;14.00;12.33;;;;;13.67;65.88;-19576.34;5000102;27;45416;-75
2022/10/07 07:06:20;;;;;;;;;17.67;13.67;;;;;13.67;66.12;-19576.34;5000071;27;45405;-76
2022/10/07 07:08:48;;;;;;;;;17.67;12.67;;;;;13.70;65.98;-19577.16;4988712;27;45417;-75
2022/10/07 07:13:58;;;;;;;;;17.00;14.50;;;;;13.70;66.15;-19577.03;4984518;28;45544;-76
2022/10/07 07:16:23;;;;;;;;;15.00;12.67;;;;;13.88;65.96;-19581.72;4982051;28;46008;-76
2022/10/07 07:18:53;;;;;;;;;15.00;13.00;;;;;14.02;65.63;-19585.34;4981732;27;45477;-75
2022/10/07 07:21:19;;;;;;;;;18.00;14.33;;;;;14.08;65.66;-19586.97;4968603;28;45390;-76
2022/10/07 07:23:45;;;;;;;;;18.00;17.00;;;;;14.12;65.59;-19588.03;4990771;27;46859;-76
2022/10/07 07:26:10;;;;;;;;;17.67;17.00;;;;;14.23;65.66;-19590.88;4999646;28;45446;-76
2022/10/07 07:28:36;;;;;;;;;17.67;16.00;;;;;14.25;65.71;-19591.41;4994843;27;45452;-75
2022/10/07 07:31:09;;;;;;;;;22.67;18.00;;;;;14.41;65.48;-19595.56;4988927;27;45538;-75
2022/10/07 07:33:38;;;;;;;;;18.33;17.00;;;;;14.50;65.27;-19598.13;4997378;27;45436;-76
2022/10/07 07:36:15;;;;;;;;;19.67;17.67;;;;;14.51;65.29;-19598.38;4982626;27;45496;-75
2022/10/07 07:38:50;;;;;;;;;16.00;15.67;;;;;14.77;65.34;-19605.25;4988272;27;45451;-76
2022/10/07 07:41:16;;;;;;;;;18.00;16.00;;;;;14.93;64.80;-19609.41;4994416;28;45236;-76
2022/10/07 07:43:41;;;;;;;;;17.00;16.00;;;;;14.98;64.25;-19610.75;4989600;27;45598;-75
2022/10/07 07:46:06;;;;;;;;;21.00;18.33;;;;;15.12;63.87;-19614.34;5012007;27;48520;-75
2022/10/07 07:48:32;;;;;;;;;17.33;15.00;;;;;15.25;63.82;-19617.59;4992515;27;45424;-75
2022/10/07 07:50:57;;;;;;;;;20.00;16.33;;;;;15.24;63.59;-19617.44;4977988;27;45542;-75
2022/10/07 07:53:22;;;;;;;;;21.00;16.00;;;;;15.43;63.45;-19622.41;5000006;27;45459;-76
2022/10/07 07:55:55;;;;;;;;;20.33;18.67;;;;;15.56;62.85;-19625.75;5056387;27;48423;-76
2022/10/07 07:58:23;;;;;;;;;21.00;19.00;;;;;15.67;62.43;-19628.72;4994187;28;45844;-75
2022/10/07 08:01:05;;;;;;;;;17.33;17.00;;;;;15.75;62.45;-19630.88;4997028;27;45417;-76
2022/10/07 08:03:37;;;;;;;;;18.00;16.33;;;;;15.85;62.05;-19633.28;4995655;27;45450;-76
2022/10/07 08:06:05;;;;;;;;;21.67;19.33;;;;;15.94;62.98;-19635.69;4993531;27;46181;-76
2022/10/07 08:08:31;;;;;;;;;17.33;17.33;;;;;16.02;61.94;-19637.84;5051983;27;45301;-76
2022/10/07 08:11:04;;;;;;;;;19.67;19.00;;;;;16.06;62.03;-19638.78;4993651;27;45245;-77
2022/10/07 08:13:31;;;;;;;;;21.67;21.67;;;;;16.23;62.19;-19643.47;4990657;27;45558;-76
2022/10/07 08:15:57;;;;;;;;;17.00;16.33;;;;;16.28;61.80;-19644.53;4986826;27;46081;-76
2022/10/07 08:18:23;;;;;;;;;23.33;19.00;;;;;16.46;61.83;-19649.38;4993173;27;45383;-76
2022/10/07 08:21:03;;;;;;;;;19.33;17.67;;;;;16.55;60.92;-19651.78;4993726;28;45416;-76
2022/10/07 08:23:29;;;;;;;;;23.00;20.00;;;;;16.55;61.28;-19651.78;5007060;27;45509;-77
2022/10/07 08:25:56;;;;;;;;;19.33;17.67;;;;;16.73;60.78;-19656.31;4998743;27;46073;-76
2022/10/07 08:28:22;;;;;;;;;25.33;19.00;;;;;16.74;60.63;-19656.72;4990271;27;45440;-76
2022/10/07 08:30:49;;;;;;;;;17.00;15.33;;;;;16.85;60.13;-19659.53;4988298;27;45585;-76
2022/10/07 08:33:16;;;;;;;;;19.00;18.33;;;;;16.86;60.47;-19659.94;4981782;28;45589;-76
2022/10/07 08:35:42;;;;;;;;;17.00;15.33;;;;;17.09;60.07;-19665.84;4964749;28;46275;-76
2022/10/07 08:38:07;;;;;;;;;21.00;19.00;;;;;17.18;59.55;-19668.25;5015828;27;45382;-76
2022/10/07 08:40:33;;;;;;;;;18.00;16.00;;;;;17.32;58.54;-19671.72;4996697;27;45413;-76
2022/10/07 08:43:00;;;;;;;;;17.33;17.33;;;;;17.29;58.74;-19671.06;4995910;27;45420;-76
2022/10/07 08:45:30;;;;;;;;;18.67;18.00;;;;;17.42;58.46;-19674.53;4992515;28;47340;-76
2022/10/07 08:47:59;;;;;;;;;18.33;16.33;;;;;17.48;58.83;-19676.00;4990676;27;45479;-77
2022/10/07 08:50:33;;;;;;;;;16.33;13.33;;;;;17.56;59.21;-19678.16;4993421;27;45443;-74
2022/10/07 08:53:03;;;;;;;;;23.67;20.67;;;;;17.62;59.02;-19679.63;4984466;28;45279;-76
2022/10/07 08:55:48;;;;;;;;;18.67;16.67;;;;;17.67;58.63;-19681.09;4981935;27;45996;-74
2022/10/07 08:58:51;;;;;;;;;17.00;17.00;;;;;17.88;58.61;-19686.44;4978048;27;45459;-75
2022/10/07 09:01:40;;;;;;;;;20.33;18.00;;;;;17.98;57.72;-19689.13;4975779;27;45307;-81
2022/10/07 09:04:33;;;;;;;;;18.00;16.00;;;;;18.04;57.21;-19690.59;5022971;27;45528;-76
2022/10/07 09:07:09;;;;;;;;;24.67;18.33;;;;;18.11;57.63;-19692.47;5030397;28;46101;-79
2022/10/07 09:09:41;;;;;;;;;18.67;18.00;;;;;18.27;57.87;-19696.59;4976031;27;45290;-80
2022/10/07 09:12:17;;;;;;;;;17.67;15.67;;;;;18.33;56.98;-19698.34;4976053;27;45450;-81
2022/10/07 09:14:47;;;;;;;;;15.33;12.67;;;;;18.33;57.05;-19698.34;4987207;27;45563;-80
2022/10/07 09:17:25;;;;;;;;;19.67;16.33;;;;;18.53;56.92;-19703.56;4976164;27;45474;-83
2022/10/07 09:19:57;;;;;;;;;18.00;16.00;;;;;18.72;57.12;-19708.50;4979700;27;45432;-83
2022/10/07 09:22:37;;;;;;;;;18.00;15.00;;;;;18.86;56.75;-19711.97;4963814;28;45480;-83
2022/10/07 09:25:12;;;;;;;;;6.67;6.67;;;;;19.02;55.27;-19716.13;5038429;27;45378;-83
2022/10/07 09:27:38;;;;;;;;;6.33;6.00;;;;;19.22;54.33;-19721.47;4984355;27;45664;-81
2022/10/07 09:30:05;;;;;;;;;6.00;4.00;;;;;19.44;53.03;-19727.19;4979506;27;45493;-81
2022/10/07 09:32:31;;;;;;;;;7.00;4.67;;;;;19.73;52.50;-19734.69;4976273;27;45437;-79
2022/10/07 09:34:56;;;;;;;;;5.00;4.00;;;;;20.08;51.83;-19743.88;4967216;27;45470;-81
2022/10/07 09:37:23;;;;;;;;;3.33;2.00;;;;;20.87;51.35;-19764.41;4972264;28;47555;-82
2022/10/07 09:39:50;;;;;;;;;3.00;3.00;;;;;21.77;48.79;-19787.72;5002957;27;45544;-81
2022/10/07 09:42:41;;;;;;;;;1.67;1.00;;;;;22.69;47.20;-19811.66;4987669;27;45480;-83
2022/10/07 09:45:30;;;;;;;;;3.00;3.00;;;;;23.85;45.03;-19841.66;4983887;28;45710;-82
2022/10/07 09:48:05;;;;;;;;;5.00;3.33;;;;;24.69;43.29;-19863.41;4989136;27;46302;-79
2022/10/07 09:50:40;;;;;;;;;3.00;3.00;;;;;25.38;43.16;-19881.31;4986042;27;45520;-77
2022/10/07 09:53:18;;;;;;;;;4.33;4.33;;;;;26.03;40.38;-19557.16;4988924;27;45520;-78
2022/10/07 09:55:44;;;;;;;;;4.33;2.00;;;;;26.76;39.74;-18217.31;4984614;27;45492;-77
2022/10/07 09:58:25;;;;;;;;;5.67;4.00;;;;;27.46;38.82;-17213.41;4985495;27;46084;-77
2022/10/07 10:00:53;;;;;;;;;6.33;3.00;;;;;27.84;38.55;-15519.72;4982959;27;45330;-76
2022/10/07 10:03:19;;;;;;;;;3.00;3.00;;;;;27.96;38.67;-14840.88;4986921;27;45459;-76
2022/10/07 10:05:56;;;;;;;;;5.33;3.33;;;;;28.51;37.82;-13486.91;4988748;27;45472;-80
2022/10/07 10:08:27;;;;;;;;;4.75;3.00;;;;;29.34;36.63;-11450.78;5007180;27;46018;-79
2022/10/07 10:11:01;;;;;;;;;5.50;3.00;;;;;30.01;35.75;-9064.50;4986746;28;45509;-76
2022/10/07 10:13:33;;;;;;;;;3.75;3.75;;;;;30.65;34.25;-4614.50;4988578;27;45471;-77
2022/10/07 10:15:59;;;;;;;;;4.25;3.50;;;;;31.28;33.75;536.94;4998619;27;45614;-78
2022/10/07 10:18:39;;;;;;;;;2.25;2.25;;;;;31.81;32.17;10332.84;4995321;27;45683;-79
2022/10/07 10:21:18;;;;;;;;;1.75;1.75;;;;;32.26;31.79;17794.38;4986719;27;45382;-81
2022/10/07 10:23:46;;;;;;;;;2.00;0.50;;;;;32.65;30.06;28011.69;5024240;27;46333;-77
2022/10/07 10:26:24;;;;;;;;;1.00;0.75;;;;;32.90;29.91;34251.88;4992347;27;45308;-75
2022/10/07 10:29:02;;;;;;;;;0.00;0.00;;;;;33.21;29.83;36776.06;4976210;27;45305;-76
2022/10/07 10:31:43;;;;;;;;;3.50;1.00;;;;;33.54;28.74;40745.78;4986424;27;45397;-75
2022/10/07 10:34:37;;;;;;;;;1.25;1.25;;;;;33.73;28.92;42965.84;4995144;27;45681;-75
2022/10/07 10:37:23;;;;;;;;;2.00;2.00;;;;;33.94;28.79;45206.38;4982719;27;45540;-75
2022/10/07 10:39:58;;;;;;;;;1.50;1.25;;;;;34.18;28.35;46808.28;4981085;28;46215;-75
2022/10/07 10:42:44;;;;;;;;;1.00;1.00;;;;;34.37;27.89;47841.59;4981159;28;45368;-75
2022/10/07 10:45:12;;;;;;;;;2.00;2.00;;;;;34.57;26.90;49707.91;4984288;28;45366;-76
2022/10/07 10:47:50;;;;;;;;;0.50;0.25;;;;;34.71;26.40;50873.47;5001652;27;45517;-77
2022/10/07 10:50:40;;;;;;;;;1.75;1.75;;;;;34.79;26.78;51039.16;4964387;28;47196;-76
2022/10/07 10:53:18;;;;;;;;;1.75;0.25;;;;;34.82;26.11;53652.72;4992441;27;45533;-76
2022/10/07 10:56:08;;;;;;;;;2.00;0.00;;;;;34.61;25.84;54853.88;4979360;28;45535;-76
2022/10/07 10:59:08;;;;;;;;;1.00;0.00;;;;;34.28;26.13;56527.81;5006749;27;45576;-76
2022/10/07 11:01:40;;;;;;;;;0.50;0.50;;;;;34.22;25.67;56947.16;4996675;27;47156;-76
2022/10/07 11:04:26;;;;;;;;;0.25;0.25;;;;;34.03;25.31;57927.34;5000124;27;45520;-76
2022/10/07 11:06:59;;;;;;;;;0.25;0.25;;;;;33.77;25.34;58930.69;4997414;27;45420;-76
2022/10/07 11:09:31;;;;;;;;;0.50;0.50;;;;;33.46;25.60;59810.66;4992195;27;45563;-76
2022/10/07 11:12:02;;;;;;;;;2.00;0.75;;;;;33.12;25.53;60430.81;4988281;27;45519;-76
2022/10/07 11:14:30;;;;;;;;;0.25;0.25;;;;;32.86;25.69;60921.00;4983490;27;45648;-75
2022/10/07 11:17:03;;;;;;;;;1.00;1.00;;;;;32.62;26.25;61284.00;4983933;27;45463;-76
2022/10/07 11:19:42;;;;;;;;;1.00;1.00;;;;;32.40;26.44;61272.81;4987841;27;45399;-76
2022/10/07 11:22:28;;;;;;;;;0.75;0.75;;;;;32.08;26.36;61892.91;4988725;28;45483;-78
2022/10/07 11:25:00;;;;;;;;;0.50;0.50;;;;;31.74;26.24;62266.78;5000456;28;45487;-79
2022/10/07 11:27:31;;;;;;;;;0.00;0.00;;;;;31.60;26.82;62341.91;4988442;28;45396;-81
2022/10/07 11:30:15;;;;;;;;;0.25;0.25;;;;;31.44;27.05;62508.66;4982477;28;45468;-81
2022/10/07 11:32:56;;;;;;;;;1.00;1.00;;;;;31.26;26.78;62757.25;4990271;28;46291;-81
2022/10/07 11:35:31;;;;;;;;;2.50;1.50;;;;;30.95;26.86;63177.09;4981815;27;45959;-81
2022/10/07 11:38:09;;;;;;;;;1.00;1.00;;;;;30.64;27.20;63368.09;5002516;27;45401;-83
2022/10/07 11:40:46;;;;;;;;;2.00;0.50;;;;;30.16;27.57;63864.53;4980625;27;45361;-80
2022/10/07 11:43:55;;;;;;;;;0.00;0.00;;;;;30.00;27.77;63784.34;4975654;28;45521;-80